sensor_id;sensor_type;location;lat;lon;timestamp;temperature;humidity
1704;DHT22;849;48.780;9.216;2024-03-22T00:00:44;12.50;99.90
1704;DHT22;849;48.780;9.216;2024-03-22T00:03:29;12.50;99.90
1704;DHT22;849;48.780;9.216;2024-03-22T00:06:13;12.40;99.90
1704;DHT22;849;48.780;9.216;2024-03-22T00:08:57;12.40;99.90
1704;DHT22;849;48.780;9.216;2024-03-22T00:11:42;12.30;99.90
1704;DHT22;849;48.780;9.216;2024-03-22T00:14:26;12.30;99.90
1704;DHT22;849;48.780;9.216;2024-03-22T00:17:10;12.30;99.90
1704;DHT22;849;48.780;9.216;2024-03-22T00:19:54;12.30;99.90
1704;DHT22;849;48.780;9.216;2024-03-22T00:22:38;12.30;99.90
1704;DHT22;849;48.780;9.216;2024-03-22T00:25:23;12.20;99.90
1704;DHT22;849;48.780;9.216;2024-03-22T00:28:07;12.20;99.90
1704;DHT22;849;48.780;9.216;2024-03-22T00:30:51;12.20;99.90
1704;DHT22;849;48.780;9.216;2024-03-22T00:33:35;12.10;99.90
1704;DHT22;849;48.780;9.216;2024-03-22T00:36:19;12.10;99.90
1704;DHT22;849;48.780;9.216;2024-03-22T00:39:04;12.00;99.90
1704;DHT22;849;48.780;9.216;2024-03-22T00:41:48;12.00;99.90
1704;DHT22;849;48.780;9.216;2024-03-22T00:44:32;12.00;99.90
1704;DHT22;849;48.780;9.216;2024-03-22T00:47:16;12.00;99.90
1704;DHT22;849;48.780;9.216;2024-03-22T00:50:00;12.00;99.90
1704;DHT22;849;48.780;9.216;2024-03-22T00:52:45;11.90;99.90
1704;DHT22;849;48.780;9.216;2024-03-22T00:55:29;11.90;99.90
1704;DHT22;849;48.780;9.216;2024-03-22T00:58:13;11.90;99.90
1704;DHT22;849;48.780;9.216;2024-03-22T01:00:57;11.80;99.90
1704;DHT22;849;48.780;9.216;2024-03-22T01:03:41;11.70;99.90
1704;DHT22;849;48.780;9.216;2024-03-22T01:06:25;11.70;99.90
1704;DHT22;849;48.780;9.216;2024-03-22T01:09:10;11.60;99.90
1704;DHT22;849;48.780;9.216;2024-03-22T01:11:55;11.60;99.90
1704;DHT22;849;48.780;9.216;2024-03-22T01:14:39;11.60;99.90
1704;DHT22;849;48.780;9.216;2024-03-22T01:17:24;11.60;99.90
1704;DHT22;849;48.780;9.216;2024-03-22T01:20:08;11.60;99.90
1704;DHT22;849;48.780;9.216;2024-03-22T01:22:53;11.50;99.90
1704;DHT22;849;48.780;9.216;2024-03-22T01:25:37;11.50;99.90
1704;DHT22;849;48.780;9.216;2024-03-22T01:28:21;11.50;99.90
1704;DHT22;849;48.780;9.216;2024-03-22T01:31:05;11.50;99.90
1704;DHT22;849;48.780;9.216;2024-03-22T01:33:49;11.40;99.90
1704;DHT22;849;48.780;9.216;2024-03-22T01:36:33;11.40;99.90
1704;DHT22;849;48.780;9.216;2024-03-22T01:39:18;11.40;99.90
1704;DHT22;849;48.780;9.216;2024-03-22T01:42:05;11.40;99.90
1704;DHT22;849;48.780;9.216;2024-03-22T01:44:49;11.30;99.90
1704;DHT22;849;48.780;9.216;2024-03-22T01:47:33;11.30;99.90
1704;DHT22;849;48.780;9.216;2024-03-22T01:50:18;11.20;99.90
1704;DHT22;849;48.780;9.216;2024-03-22T01:53:03;11.20;99.90
1704;DHT22;849;48.780;9.216;2024-03-22T01:55:48;11.20;99.90
1704;DHT22;849;48.780;9.216;2024-03-22T01:58:32;11.20;99.90
1704;DHT22;849;48.780;9.216;2024-03-22T02:01:16;11.10;99.90
1704;DHT22;849;48.780;9.216;2024-03-22T02:04:00;11.10;99.90
1704;DHT22;849;48.780;9.216;2024-03-22T02:06:45;11.10;99.90
1704;DHT22;849;48.780;9.216;2024-03-22T02:09:29;11.10;99.90
1704;DHT22;849;48.780;9.216;2024-03-22T02:12:13;11.10;99.90
1704;DHT22;849;48.780;9.216;2024-03-22T02:15:01;11.10;99.90
1704;DHT22;849;48.780;9.216;2024-03-22T02:17:45;11.10;99.90
1704;DHT22;849;48.780;9.216;2024-03-22T02:20:30;11.00;99.90
1704;DHT22;849;48.780;9.216;2024-03-22T02:23:13;11.00;99.90
1704;DHT22;849;48.780;9.216;2024-03-22T02:25:58;11.00;99.90
1704;DHT22;849;48.780;9.216;2024-03-22T02:28:41;11.00;99.90
1704;DHT22;849;48.780;9.216;2024-03-22T02:31:25;10.90;99.90
1704;DHT22;849;48.780;9.216;2024-03-22T02:34:10;10.90;99.90
1704;DHT22;849;48.780;9.216;2024-03-22T02:36:55;10.90;99.90
1704;DHT22;849;48.780;9.216;2024-03-22T02:39:38;10.90;99.90
1704;DHT22;849;48.780;9.216;2024-03-22T02:42:22;10.80;99.90
1704;DHT22;849;48.780;9.216;2024-03-22T02:45:07;10.70;99.90
1704;DHT22;849;48.780;9.216;2024-03-22T02:47:51;10.70;99.90
1704;DHT22;849;48.780;9.216;2024-03-22T02:50:36;10.70;99.90
1704;DHT22;849;48.780;9.216;2024-03-22T02:53:20;10.70;99.90
1704;DHT22;849;48.780;9.216;2024-03-22T02:56:05;10.70;99.90
1704;DHT22;849;48.780;9.216;2024-03-22T02:58:49;10.60;99.90
1704;DHT22;849;48.780;9.216;2024-03-22T03:01:33;10.60;99.90
1704;DHT22;849;48.780;9.216;2024-03-22T03:04:17;10.60;99.90
1704;DHT22;849;48.780;9.216;2024-03-22T03:07:02;10.60;99.90
1704;DHT22;849;48.780;9.216;2024-03-22T03:09:46;10.60;99.90
1704;DHT22;849;48.780;9.216;2024-03-22T03:12:29;10.50;99.90
1704;DHT22;849;48.780;9.216;2024-03-22T03:15:14;10.60;99.90
1704;DHT22;849;48.780;9.216;2024-03-22T03:17:58;10.60;99.90
1704;DHT22;849;48.780;9.216;2024-03-22T03:20:42;10.60;99.90
1704;DHT22;849;48.780;9.216;2024-03-22T03:23:27;10.60;99.90
1704;DHT22;849;48.780;9.216;2024-03-22T03:26:11;10.50;99.90
1704;DHT22;849;48.780;9.216;2024-03-22T03:28:55;10.60;99.90
1704;DHT22;849;48.780;9.216;2024-03-22T03:31:40;10.60;99.90
1704;DHT22;849;48.780;9.216;2024-03-22T03:34:24;10.60;99.90
1704;DHT22;849;48.780;9.216;2024-03-22T03:37:08;10.60;99.90
1704;DHT22;849;48.780;9.216;2024-03-22T03:39:52;10.70;99.90
1704;DHT22;849;48.780;9.216;2024-03-22T03:42:37;10.70;99.90
1704;DHT22;849;48.780;9.216;2024-03-22T03:45:21;10.70;99.90
1704;DHT22;849;48.780;9.216;2024-03-22T03:48:05;10.70;99.90
1704;DHT22;849;48.780;9.216;2024-03-22T03:50:53;10.70;99.90
1704;DHT22;849;48.780;9.216;2024-03-22T03:53:37;10.60;99.90
1704;DHT22;849;48.780;9.216;2024-03-22T03:56:21;10.70;99.90
1704;DHT22;849;48.780;9.216;2024-03-22T03:59:05;10.60;99.90
1704;DHT22;849;48.780;9.216;2024-03-22T04:01:50;10.60;99.90
1704;DHT22;849;48.780;9.216;2024-03-22T04:04:34;10.50;99.90
1704;DHT22;849;48.780;9.216;2024-03-22T04:07:18;10.50;99.90
1704;DHT22;849;48.780;9.216;2024-03-22T04:10:03;10.50;99.90
1704;DHT22;849;48.780;9.216;2024-03-22T04:12:47;10.50;99.90
1704;DHT22;849;48.780;9.216;2024-03-22T04:15:33;10.40;99.90
1704;DHT22;849;48.780;9.216;2024-03-22T04:18:18;10.40;99.90
1704;DHT22;849;48.780;9.216;2024-03-22T04:21:02;10.40;99.90
1704;DHT22;849;48.780;9.216;2024-03-22T04:23:46;10.40;99.90
1704;DHT22;849;48.780;9.216;2024-03-22T04:26:31;10.40;99.90
1704;DHT22;849;48.780;9.216;2024-03-22T04:29:14;10.30;99.90
1704;DHT22;849;48.780;9.216;2024-03-22T04:31:59;10.30;99.90
1704;DHT22;849;48.780;9.216;2024-03-22T04:34:43;10.30;99.90
1704;DHT22;849;48.780;9.216;2024-03-22T04:37:27;10.30;99.90
1704;DHT22;849;48.780;9.216;2024-03-22T04:40:11;10.30;99.90
1704;DHT22;849;48.780;9.216;2024-03-22T04:42:55;10.40;99.90
1704;DHT22;849;48.780;9.216;2024-03-22T04:45:41;10.40;99.90
1704;DHT22;849;48.780;9.216;2024-03-22T04:48:25;10.40;99.90
1704;DHT22;849;48.780;9.216;2024-03-22T04:51:09;10.40;99.90
1704;DHT22;849;48.780;9.216;2024-03-22T04:53:53;10.40;99.90
1704;DHT22;849;48.780;9.216;2024-03-22T04:56:39;10.40;99.90
1704;DHT22;849;48.780;9.216;2024-03-22T04:59:23;10.50;99.90
1704;DHT22;849;48.780;9.216;2024-03-22T05:02:07;10.50;99.90
1704;DHT22;849;48.780;9.216;2024-03-22T05:04:51;10.40;99.90
1704;DHT22;849;48.780;9.216;2024-03-22T05:07:36;10.40;99.90
1704;DHT22;849;48.780;9.216;2024-03-22T05:10:20;10.50;99.90
1704;DHT22;849;48.780;9.216;2024-03-22T05:13:04;10.60;99.90
1704;DHT22;849;48.780;9.216;2024-03-22T05:15:48;10.60;99.90
1704;DHT22;849;48.780;9.216;2024-03-22T05:18:32;10.60;99.90
1704;DHT22;849;48.780;9.216;2024-03-22T05:21:17;10.70;99.90
1704;DHT22;849;48.780;9.216;2024-03-22T05:24:01;10.70;99.90
1704;DHT22;849;48.780;9.216;2024-03-22T05:26:45;10.70;99.90
1704;DHT22;849;48.780;9.216;2024-03-22T05:29:29;10.70;99.90
1704;DHT22;849;48.780;9.216;2024-03-22T05:32:14;10.70;99.90
1704;DHT22;849;48.780;9.216;2024-03-22T05:34:58;10.80;99.90
1704;DHT22;849;48.780;9.216;2024-03-22T05:37:42;10.80;99.90
1704;DHT22;849;48.780;9.216;2024-03-22T05:40:27;10.90;99.90
1704;DHT22;849;48.780;9.216;2024-03-22T05:43:11;10.90;99.90
1704;DHT22;849;48.780;9.216;2024-03-22T05:45:55;10.90;99.90
1704;DHT22;849;48.780;9.216;2024-03-22T05:48:39;10.80;99.90
1704;DHT22;849;48.780;9.216;2024-03-22T05:51:27;10.80;99.90
1704;DHT22;849;48.780;9.216;2024-03-22T05:54:11;10.80;99.90
1704;DHT22;849;48.780;9.216;2024-03-22T05:56:55;10.90;99.90
1704;DHT22;849;48.780;9.216;2024-03-22T05:59:39;10.90;99.90
1704;DHT22;849;48.780;9.216;2024-03-22T06:02:23;10.90;99.90
1704;DHT22;849;48.780;9.216;2024-03-22T06:05:07;10.90;99.90
1704;DHT22;849;48.780;9.216;2024-03-22T06:07:52;10.90;99.90
1704;DHT22;849;48.780;9.216;2024-03-22T06:10:36;10.90;99.90
1704;DHT22;849;48.780;9.216;2024-03-22T06:13:20;10.90;99.90
1704;DHT22;849;48.780;9.216;2024-03-22T06:16:04;10.90;99.90
1704;DHT22;849;48.780;9.216;2024-03-22T06:18:48;10.90;99.90
1704;DHT22;849;48.780;9.216;2024-03-22T06:21:33;10.90;99.90
1704;DHT22;849;48.780;9.216;2024-03-22T06:24:17;10.90;99.90
1704;DHT22;849;48.780;9.216;2024-03-22T06:27:01;11.00;99.90
1704;DHT22;849;48.780;9.216;2024-03-22T06:29:45;11.00;99.90
1704;DHT22;849;48.780;9.216;2024-03-22T06:32:30;11.00;99.90
1704;DHT22;849;48.780;9.216;2024-03-22T06:35:14;11.10;99.90
1704;DHT22;849;48.780;9.216;2024-03-22T06:37:58;11.10;99.90
1704;DHT22;849;48.780;9.216;2024-03-22T06:40:43;11.10;99.90
1704;DHT22;849;48.780;9.216;2024-03-22T06:43:27;11.10;99.90
1704;DHT22;849;48.780;9.216;2024-03-22T06:46:11;11.20;99.90
1704;DHT22;849;48.780;9.216;2024-03-22T06:48:57;11.20;99.90
1704;DHT22;849;48.780;9.216;2024-03-22T06:51:41;11.20;99.90
1704;DHT22;849;48.780;9.216;2024-03-22T06:54:25;11.30;99.90
1704;DHT22;849;48.780;9.216;2024-03-22T06:57:10;11.30;99.90
1704;DHT22;849;48.780;9.216;2024-03-22T06:59:54;11.30;99.90
1704;DHT22;849;48.780;9.216;2024-03-22T07:02:40;11.40;99.90
1704;DHT22;849;48.780;9.216;2024-03-22T07:05:24;11.40;99.90
1704;DHT22;849;48.780;9.216;2024-03-22T07:08:08;11.50;99.90
1704;DHT22;849;48.780;9.216;2024-03-22T07:10:53;11.50;99.90
1704;DHT22;849;48.780;9.216;2024-03-22T07:13:38;11.60;99.90
1704;DHT22;849;48.780;9.216;2024-03-22T07:16:22;11.60;99.90
1704;DHT22;849;48.780;9.216;2024-03-22T07:19:06;11.60;99.90
1704;DHT22;849;48.780;9.216;2024-03-22T07:21:50;11.70;99.90
1704;DHT22;849;48.780;9.216;2024-03-22T07:24:34;11.70;99.90
1704;DHT22;849;48.780;9.216;2024-03-22T07:27:19;11.70;99.90
1704;DHT22;849;48.780;9.216;2024-03-22T07:30:03;11.80;99.90
1704;DHT22;849;48.780;9.216;2024-03-22T07:32:47;11.80;99.90
1704;DHT22;849;48.780;9.216;2024-03-22T07:35:31;11.90;99.90
1704;DHT22;849;48.780;9.216;2024-03-22T07:38:15;11.90;99.90
1704;DHT22;849;48.780;9.216;2024-03-22T07:41:00;12.00;99.90
1704;DHT22;849;48.780;9.216;2024-03-22T07:43:44;11.90;99.90
1704;DHT22;849;48.780;9.216;2024-03-22T07:46:28;12.00;99.90
1704;DHT22;849;48.780;9.216;2024-03-22T07:49:13;12.00;99.90
1704;DHT22;849;48.780;9.216;2024-03-22T07:51:57;12.10;99.90
1704;DHT22;849;48.780;9.216;2024-03-22T07:54:41;12.10;99.90
1704;DHT22;849;48.780;9.216;2024-03-22T07:57:25;12.20;99.90
1704;DHT22;849;48.780;9.216;2024-03-22T08:00:09;12.20;99.90
1704;DHT22;849;48.780;9.216;2024-03-22T08:02:53;12.30;99.90
1704;DHT22;849;48.780;9.216;2024-03-22T08:05:38;12.40;99.90
1704;DHT22;849;48.780;9.216;2024-03-22T08:08:22;12.50;99.90
1704;DHT22;849;48.780;9.216;2024-03-22T08:11:07;12.50;99.90
1704;DHT22;849;48.780;9.216;2024-03-22T08:13:51;12.60;99.90
1704;DHT22;849;48.780;9.216;2024-03-22T08:16:35;12.60;99.90
1704;DHT22;849;48.780;9.216;2024-03-22T08:19:19;12.70;99.90
1704;DHT22;849;48.780;9.216;2024-03-22T08:22:03;12.70;99.90
1704;DHT22;849;48.780;9.216;2024-03-22T08:24:48;12.80;99.90
1704;DHT22;849;48.780;9.216;2024-03-22T08:27:33;12.90;99.90
1704;DHT22;849;48.780;9.216;2024-03-22T08:30:17;13.10;99.90
1704;DHT22;849;48.780;9.216;2024-03-22T08:33:01;13.20;99.90
1704;DHT22;849;48.780;9.216;2024-03-22T08:35:48;13.20;99.90
1704;DHT22;849;48.780;9.216;2024-03-22T08:38:32;13.30;99.90
1704;DHT22;849;48.780;9.216;2024-03-22T08:41:17;13.50;99.90
1704;DHT22;849;48.780;9.216;2024-03-22T08:44:01;13.60;99.90
1704;DHT22;849;48.780;9.216;2024-03-22T08:46:45;13.70;99.90
1704;DHT22;849;48.780;9.216;2024-03-22T08:49:30;13.90;99.90
1704;DHT22;849;48.780;9.216;2024-03-22T08:52:14;14.00;99.90
1704;DHT22;849;48.780;9.216;2024-03-22T08:54:58;14.10;99.90
1704;DHT22;849;48.780;9.216;2024-03-22T08:57:42;14.20;99.90
1704;DHT22;849;48.780;9.216;2024-03-22T09:00:27;14.30;99.90
1704;DHT22;849;48.780;9.216;2024-03-22T09:03:11;14.40;99.90
1704;DHT22;849;48.780;9.216;2024-03-22T09:05:56;14.50;99.90
1704;DHT22;849;48.780;9.216;2024-03-22T09:08:40;14.60;99.90
1704;DHT22;849;48.780;9.216;2024-03-22T09:11:24;14.70;99.90
1704;DHT22;849;48.780;9.216;2024-03-22T09:14:09;14.80;99.90
1704;DHT22;849;48.780;9.216;2024-03-22T09:16:53;14.80;99.90
1704;DHT22;849;48.780;9.216;2024-03-22T09:19:37;14.90;99.90
1704;DHT22;849;48.780;9.216;2024-03-22T09:22:21;15.00;99.90
1704;DHT22;849;48.780;9.216;2024-03-22T09:25:06;15.10;99.90
1704;DHT22;849;48.780;9.216;2024-03-22T09:27:50;15.10;99.90
1704;DHT22;849;48.780;9.216;2024-03-22T09:30:37;15.20;99.90
1704;DHT22;849;48.780;9.216;2024-03-22T09:33:21;15.30;99.90
1704;DHT22;849;48.780;9.216;2024-03-22T09:36:05;15.40;99.90
1704;DHT22;849;48.780;9.216;2024-03-22T09:38:50;15.50;99.90
1704;DHT22;849;48.780;9.216;2024-03-22T09:41:34;15.60;99.90
1704;DHT22;849;48.780;9.216;2024-03-22T09:44:22;15.60;99.90
1704;DHT22;849;48.780;9.216;2024-03-22T09:47:07;15.70;99.90
1704;DHT22;849;48.780;9.216;2024-03-22T09:49:52;15.70;99.90
1704;DHT22;849;48.780;9.216;2024-03-22T09:52:37;15.80;99.90
1704;DHT22;849;48.780;9.216;2024-03-22T09:55:24;15.90;99.90
1704;DHT22;849;48.780;9.216;2024-03-22T09:58:10;16.00;99.30
1704;DHT22;849;48.780;9.216;2024-03-22T10:00:54;16.20;97.80
1704;DHT22;849;48.780;9.216;2024-03-22T10:03:44;16.30;96.40
1704;DHT22;849;48.780;9.216;2024-03-22T10:06:31;16.40;93.20
1704;DHT22;849;48.780;9.216;2024-03-22T10:09:15;16.60;93.10
1704;DHT22;849;48.780;9.216;2024-03-22T10:12:01;16.70;91.80
1704;DHT22;849;48.780;9.216;2024-03-22T10:14:45;16.90;91.40
1704;DHT22;849;48.780;9.216;2024-03-22T10:17:29;17.00;87.20
1704;DHT22;849;48.780;9.216;2024-03-22T10:20:13;17.10;83.90
1704;DHT22;849;48.780;9.216;2024-03-22T10:22:58;17.10;82.20
1704;DHT22;849;48.780;9.216;2024-03-22T10:25:42;17.20;83.20
1704;DHT22;849;48.780;9.216;2024-03-22T10:28:27;17.30;81.30
1704;DHT22;849;48.780;9.216;2024-03-22T10:31:14;17.30;79.80
1704;DHT22;849;48.780;9.216;2024-03-22T10:33:59;17.30;78.50
1704;DHT22;849;48.780;9.216;2024-03-22T10:36:44;17.30;78.40
1704;DHT22;849;48.780;9.216;2024-03-22T10:39:29;17.40;76.30
1704;DHT22;849;48.780;9.216;2024-03-22T10:42:14;17.40;77.20
1704;DHT22;849;48.780;9.216;2024-03-22T10:44:59;17.50;77.50
1704;DHT22;849;48.780;9.216;2024-03-22T10:47:44;17.50;75.90
1704;DHT22;849;48.780;9.216;2024-03-22T10:50:29;17.50;74.10
1704;DHT22;849;48.780;9.216;2024-03-22T10:53:20;17.50;75.00
1704;DHT22;849;48.780;9.216;2024-03-22T10:56:05;17.60;74.70
1704;DHT22;849;48.780;9.216;2024-03-22T10:58:50;17.50;73.00
1704;DHT22;849;48.780;9.216;2024-03-22T11:01:36;17.50;74.60
1704;DHT22;849;48.780;9.216;2024-03-22T11:04:23;17.80;76.40
1704;DHT22;849;48.780;9.216;2024-03-22T11:07:19;17.70;76.20
1704;DHT22;849;48.780;9.216;2024-03-22T11:10:04;17.70;75.50
1704;DHT22;849;48.780;9.216;2024-03-22T11:12:50;17.80;73.50
1704;DHT22;849;48.780;9.216;2024-03-22T11:15:35;17.90;74.30
1704;DHT22;849;48.780;9.216;2024-03-22T11:18:19;18.00;76.60
1704;DHT22;849;48.780;9.216;2024-03-22T11:21:03;18.00;72.90
1704;DHT22;849;48.780;9.216;2024-03-22T11:23:47;18.00;73.60
1704;DHT22;849;48.780;9.216;2024-03-22T11:26:32;18.00;72.00
1704;DHT22;849;48.780;9.216;2024-03-22T11:29:16;18.10;71.80
1704;DHT22;849;48.780;9.216;2024-03-22T11:32:01;18.10;71.90
1704;DHT22;849;48.780;9.216;2024-03-22T11:34:45;18.20;74.10
1704;DHT22;849;48.780;9.216;2024-03-22T11:37:30;18.20;74.80
1704;DHT22;849;48.780;9.216;2024-03-22T11:40:14;18.30;72.80
1704;DHT22;849;48.780;9.216;2024-03-22T11:42:59;18.30;73.00
1704;DHT22;849;48.780;9.216;2024-03-22T11:45:44;18.40;72.30
1704;DHT22;849;48.780;9.216;2024-03-22T11:48:28;18.60;70.90
1704;DHT22;849;48.780;9.216;2024-03-22T11:51:12;18.40;70.40
1704;DHT22;849;48.780;9.216;2024-03-22T11:53:57;18.40;71.10
1704;DHT22;849;48.780;9.216;2024-03-22T11:56:41;18.60;71.80
1704;DHT22;849;48.780;9.216;2024-03-22T11:59:26;18.50;71.40
1704;DHT22;849;48.780;9.216;2024-03-22T12:02:10;18.70;70.90
1704;DHT22;849;48.780;9.216;2024-03-22T12:04:54;18.70;69.80
1704;DHT22;849;48.780;9.216;2024-03-22T12:07:39;19.00;69.60
1704;DHT22;849;48.780;9.216;2024-03-22T12:10:24;18.90;66.40
1704;DHT22;849;48.780;9.216;2024-03-22T12:13:08;18.90;67.10
1704;DHT22;849;48.780;9.216;2024-03-22T12:15:52;19.00;68.30
1704;DHT22;849;48.780;9.216;2024-03-22T12:18:37;19.10;68.10
1704;DHT22;849;48.780;9.216;2024-03-22T12:21:21;19.40;66.40
1704;DHT22;849;48.780;9.216;2024-03-22T12:24:05;19.20;64.00
1704;DHT22;849;48.780;9.216;2024-03-22T12:26:50;19.30;63.70
1704;DHT22;849;48.780;9.216;2024-03-22T12:29:34;19.50;63.40
1704;DHT22;849;48.780;9.216;2024-03-22T12:32:19;19.30;63.90
1704;DHT22;849;48.780;9.216;2024-03-22T12:35:03;19.40;67.80
1704;DHT22;849;48.780;9.216;2024-03-22T12:37:47;19.50;69.80
1704;DHT22;849;48.780;9.216;2024-03-22T12:40:32;19.50;67.40
1704;DHT22;849;48.780;9.216;2024-03-22T12:43:16;19.50;65.80
1704;DHT22;849;48.780;9.216;2024-03-22T12:46:01;19.60;64.90
1704;DHT22;849;48.780;9.216;2024-03-22T12:48:45;19.60;65.10
1704;DHT22;849;48.780;9.216;2024-03-22T12:51:29;19.60;64.80
1704;DHT22;849;48.780;9.216;2024-03-22T12:54:13;19.70;65.50
1704;DHT22;849;48.780;9.216;2024-03-22T12:56:58;19.80;65.60
1704;DHT22;849;48.780;9.216;2024-03-22T12:59:42;19.80;67.90
1704;DHT22;849;48.780;9.216;2024-03-22T13:02:27;19.90;65.50
1704;DHT22;849;48.780;9.216;2024-03-22T13:05:11;19.90;64.20
1704;DHT22;849;48.780;9.216;2024-03-22T13:07:56;19.90;64.70
1704;DHT22;849;48.780;9.216;2024-03-22T13:10:40;20.00;63.60
1704;DHT22;849;48.780;9.216;2024-03-22T13:13:27;20.00;62.50
1704;DHT22;849;48.780;9.216;2024-03-22T13:16:11;20.00;62.30
1704;DHT22;849;48.780;9.216;2024-03-22T13:18:58;20.00;63.50
1704;DHT22;849;48.780;9.216;2024-03-22T13:21:42;20.00;61.60
1704;DHT22;849;48.780;9.216;2024-03-22T13:24:31;20.00;61.00
1704;DHT22;849;48.780;9.216;2024-03-22T13:27:16;20.00;61.60
1704;DHT22;849;48.780;9.216;2024-03-22T13:30:01;20.10;61.20
1704;DHT22;849;48.780;9.216;2024-03-22T13:32:45;20.00;62.30
1704;DHT22;849;48.780;9.216;2024-03-22T13:35:29;19.90;59.10
1704;DHT22;849;48.780;9.216;2024-03-22T13:38:13;19.90;59.30
1704;DHT22;849;48.780;9.216;2024-03-22T13:40:58;20.00;60.00
1704;DHT22;849;48.780;9.216;2024-03-22T13:43:42;20.10;60.80
1704;DHT22;849;48.780;9.216;2024-03-22T13:46:28;20.20;59.70
1704;DHT22;849;48.780;9.216;2024-03-22T13:49:13;20.30;60.80
1704;DHT22;849;48.780;9.216;2024-03-22T13:51:59;20.30;59.70
1704;DHT22;849;48.780;9.216;2024-03-22T13:54:44;20.30;58.60
1704;DHT22;849;48.780;9.216;2024-03-22T13:57:28;20.30;58.50
1704;DHT22;849;48.780;9.216;2024-03-22T14:00:12;20.30;58.30
1704;DHT22;849;48.780;9.216;2024-03-22T14:02:58;20.30;58.40
1704;DHT22;849;48.780;9.216;2024-03-22T14:05:42;20.20;58.40
1704;DHT22;849;48.780;9.216;2024-03-22T14:08:27;20.40;59.70
1704;DHT22;849;48.780;9.216;2024-03-22T14:11:11;20.20;60.20
1704;DHT22;849;48.780;9.216;2024-03-22T14:13:56;20.20;59.30
1704;DHT22;849;48.780;9.216;2024-03-22T14:16:41;20.10;60.00
1704;DHT22;849;48.780;9.216;2024-03-22T14:19:25;20.10;60.70
1704;DHT22;849;48.780;9.216;2024-03-22T14:22:09;20.00;60.10
1704;DHT22;849;48.780;9.216;2024-03-22T14:24:53;20.00;61.50
1704;DHT22;849;48.780;9.216;2024-03-22T14:27:38;19.90;60.80
1704;DHT22;849;48.780;9.216;2024-03-22T14:30:22;20.00;61.20
1704;DHT22;849;48.780;9.216;2024-03-22T14:33:06;19.70;60.30
1704;DHT22;849;48.780;9.216;2024-03-22T14:35:51;19.70;60.80
1704;DHT22;849;48.780;9.216;2024-03-22T14:38:35;19.70;61.80
1704;DHT22;849;48.780;9.216;2024-03-22T14:41:20;19.60;60.80
1704;DHT22;849;48.780;9.216;2024-03-22T14:44:04;19.50;60.00
1704;DHT22;849;48.780;9.216;2024-03-22T14:46:48;19.40;59.70
1704;DHT22;849;48.780;9.216;2024-03-22T14:49:32;19.40;59.10
1704;DHT22;849;48.780;9.216;2024-03-22T14:52:16;19.40;58.00
1704;DHT22;849;48.780;9.216;2024-03-22T14:55:01;19.30;56.90
1704;DHT22;849;48.780;9.216;2024-03-22T14:57:45;19.30;56.60
1704;DHT22;849;48.780;9.216;2024-03-22T15:00:29;19.40;57.10
1704;DHT22;849;48.780;9.216;2024-03-22T15:03:14;19.40;56.60
1704;DHT22;849;48.780;9.216;2024-03-22T15:05:58;19.30;55.40
1704;DHT22;849;48.780;9.216;2024-03-22T15:08:46;19.30;55.30
1704;DHT22;849;48.780;9.216;2024-03-22T15:11:30;19.30;55.30
1704;DHT22;849;48.780;9.216;2024-03-22T15:14:14;19.20;55.30
1704;DHT22;849;48.780;9.216;2024-03-22T15:16:58;19.20;54.80
1704;DHT22;849;48.780;9.216;2024-03-22T15:19:42;19.30;55.00
1704;DHT22;849;48.780;9.216;2024-03-22T15:22:27;19.30;54.60
1704;DHT22;849;48.780;9.216;2024-03-22T15:25:12;19.30;54.60
1704;DHT22;849;48.780;9.216;2024-03-22T15:27:56;19.30;54.40
1704;DHT22;849;48.780;9.216;2024-03-22T15:30:40;19.30;55.00
1704;DHT22;849;48.780;9.216;2024-03-22T15:33:25;19.30;53.90
1704;DHT22;849;48.780;9.216;2024-03-22T15:36:10;19.20;54.00
1704;DHT22;849;48.780;9.216;2024-03-22T15:38:54;19.20;54.20
1704;DHT22;849;48.780;9.216;2024-03-22T15:41:38;19.10;54.40
1704;DHT22;849;48.780;9.216;2024-03-22T15:44:22;19.20;54.80
1704;DHT22;849;48.780;9.216;2024-03-22T15:47:06;19.20;54.70
1704;DHT22;849;48.780;9.216;2024-03-22T15:49:51;19.20;55.50
1704;DHT22;849;48.780;9.216;2024-03-22T15:52:35;19.20;55.50
1704;DHT22;849;48.780;9.216;2024-03-22T15:55:20;19.30;55.60
1704;DHT22;849;48.780;9.216;2024-03-22T15:58:04;19.20;55.80
1704;DHT22;849;48.780;9.216;2024-03-22T16:00:49;19.30;56.10
1704;DHT22;849;48.780;9.216;2024-03-22T16:03:33;19.20;55.90
1704;DHT22;849;48.780;9.216;2024-03-22T16:06:18;19.20;56.00
1704;DHT22;849;48.780;9.216;2024-03-22T16:09:02;19.20;56.20
1704;DHT22;849;48.780;9.216;2024-03-22T16:11:46;19.10;56.10
1704;DHT22;849;48.780;9.216;2024-03-22T16:14:30;19.10;55.50
1704;DHT22;849;48.780;9.216;2024-03-22T16:17:14;19.10;55.80
1704;DHT22;849;48.780;9.216;2024-03-22T16:19:59;19.10;56.50
1704;DHT22;849;48.780;9.216;2024-03-22T16:22:43;19.10;56.60
1704;DHT22;849;48.780;9.216;2024-03-22T16:25:27;19.10;57.20
1704;DHT22;849;48.780;9.216;2024-03-22T16:28:11;19.10;58.40
1704;DHT22;849;48.780;9.216;2024-03-22T16:30:55;19.10;57.60
1704;DHT22;849;48.780;9.216;2024-03-22T16:33:40;19.20;58.20
1704;DHT22;849;48.780;9.216;2024-03-22T16:36:24;19.20;58.10
1704;DHT22;849;48.780;9.216;2024-03-22T16:39:08;19.20;57.30
1704;DHT22;849;48.780;9.216;2024-03-22T16:41:52;19.10;57.10
1704;DHT22;849;48.780;9.216;2024-03-22T16:44:37;19.20;57.60
1704;DHT22;849;48.780;9.216;2024-03-22T16:47:22;19.30;57.30
1704;DHT22;849;48.780;9.216;2024-03-22T16:50:07;19.20;57.20
1704;DHT22;849;48.780;9.216;2024-03-22T16:52:51;19.10;57.50
1704;DHT22;849;48.780;9.216;2024-03-22T16:55:35;19.10;57.70
1704;DHT22;849;48.780;9.216;2024-03-22T16:58:20;19.10;58.20
1704;DHT22;849;48.780;9.216;2024-03-22T17:01:04;19.10;58.20
1704;DHT22;849;48.780;9.216;2024-03-22T17:03:49;19.10;58.30
1704;DHT22;849;48.780;9.216;2024-03-22T17:06:33;19.10;58.70
1704;DHT22;849;48.780;9.216;2024-03-22T17:09:17;19.00;59.20
1704;DHT22;849;48.780;9.216;2024-03-22T17:12:01;19.00;59.00
1704;DHT22;849;48.780;9.216;2024-03-22T17:14:47;18.80;59.00
1704;DHT22;849;48.780;9.216;2024-03-22T17:17:31;18.70;59.30
1704;DHT22;849;48.780;9.216;2024-03-22T17:20:15;18.70;60.60
1704;DHT22;849;48.780;9.216;2024-03-22T17:22:59;18.70;62.50
1704;DHT22;849;48.780;9.216;2024-03-22T17:25:43;18.70;64.90
1704;DHT22;849;48.780;9.216;2024-03-22T17:28:28;18.60;65.80
1704;DHT22;849;48.780;9.216;2024-03-22T17:31:13;18.60;68.40
1704;DHT22;849;48.780;9.216;2024-03-22T17:33:58;18.50;69.40
1704;DHT22;849;48.780;9.216;2024-03-22T17:36:43;18.40;68.70
1704;DHT22;849;48.780;9.216;2024-03-22T17:39:27;18.40;69.50
1704;DHT22;849;48.780;9.216;2024-03-22T17:42:11;18.30;70.60
1704;DHT22;849;48.780;9.216;2024-03-22T17:44:56;18.20;71.30
1704;DHT22;849;48.780;9.216;2024-03-22T17:47:40;18.10;72.50
1704;DHT22;849;48.780;9.216;2024-03-22T17:50:24;18.00;73.90
1704;DHT22;849;48.780;9.216;2024-03-22T17:53:08;17.90;73.60
1704;DHT22;849;48.780;9.216;2024-03-22T17:55:52;17.90;74.10
1704;DHT22;849;48.780;9.216;2024-03-22T17:58:37;17.80;74.20
1704;DHT22;849;48.780;9.216;2024-03-22T18:01:21;17.70;75.20
1704;DHT22;849;48.780;9.216;2024-03-22T18:04:05;17.60;74.50
1704;DHT22;849;48.780;9.216;2024-03-22T18:06:49;17.60;72.60
1704;DHT22;849;48.780;9.216;2024-03-22T18:09:34;17.50;74.00